createdAt,value
2019-02-02T00:00:21.367Z,23.57
2019-02-02T00:03:09.146Z,24.23
2019-02-02T00:05:56.774Z,23.87
2019-02-02T00:08:44.198Z,24.17
2019-02-02T00:11:31.930Z,24.23
2019-02-02T00:14:19.662Z,24.67
2019-02-02T00:17:06.982Z,24.70
2019-02-02T00:19:55.865Z,24.90
2019-02-02T00:22:43.277Z,24.37
2019-02-02T00:25:30.905Z,24.30
2019-02-02T00:28:18.530Z,24.70
2019-02-02T00:31:06.258Z,24.73
2019-02-02T00:33:53.999Z,24.43
2019-02-02T00:36:41.308Z,25.27
2019-02-02T00:39:29.153Z,23.70
2019-02-02T00:42:16.670Z,25.00
2019-02-02T00:45:07.696Z,26.10
2019-02-02T00:47:55.121Z,25.73
2019-02-02T00:50:43.191Z,27.40
2019-02-02T00:53:31.078Z,26.70
2019-02-02T00:56:18.813Z,26.33
2019-02-02T00:59:06.547Z,26.30
2019-02-02T01:01:54.076Z,27.80
2019-02-02T01:04:41.590Z,27.77
2019-02-02T01:07:28.603Z,27.13
2019-02-02T01:10:19.373Z,28.00
2019-02-02T01:13:06.829Z,27.37
2019-02-02T01:15:54.050Z,26.87
2019-02-02T01:18:41.473Z,29.57
2019-02-02T01:21:29.304Z,28.00
2019-02-02T01:24:16.504Z,27.37
2019-02-02T01:27:04.156Z,28.93
2019-02-02T01:29:52.091Z,28.20
2019-02-02T01:32:39.516Z,28.27
2019-02-02T01:35:27.354Z,29.70
2019-02-02T01:38:14.872Z,27.63
2019-02-02T01:41:02.367Z,29.07
2019-02-02T01:43:49.928Z,29.43
2019-02-02T01:46:37.248Z,30.40
2019-02-02T01:49:25.800Z,30.20
2019-02-02T01:52:13.323Z,31.57
2019-02-02T01:55:01.167Z,31.07
2019-02-02T01:57:48.278Z,31.47
2019-02-02T02:00:36.123Z,31.37
2019-02-02T02:03:23.762Z,30.60
2019-02-02T02:06:11.577Z,30.57
2019-02-02T02:08:58.897Z,30.93
2019-02-02T02:11:46.215Z,31.13
2019-02-02T02:14:33.842Z,31.13
2019-02-02T02:17:21.476Z,31.23
2019-02-02T02:20:11.651Z,30.73
2019-02-02T02:22:58.781Z,29.60
2019-02-02T02:25:46.511Z,30.50
2019-02-02T02:28:33.638Z,31.37
2019-02-02T02:31:20.948Z,29.77
2019-02-02T02:34:08.575Z,29.77
2019-02-02T02:36:55.811Z,30.30
2019-02-02T02:39:43.542Z,30.57
2019-02-02T02:42:31.362Z,30.20
2019-02-02T02:45:19.397Z,30.93
2019-02-02T02:48:07.230Z,30.07
2019-02-02T02:50:54.757Z,29.60
2019-02-02T02:53:41.975Z,30.10
2019-02-02T02:56:29.300Z,30.30
2019-02-02T02:59:17.030Z,29.60
2019-02-02T03:02:04.759Z,31.97
2019-02-02T03:04:52.188Z,32.17
2019-02-02T03:07:40.125Z,31.83
2019-02-02T03:10:27.545Z,30.97
2019-02-02T03:13:15.073Z,31.97
2019-02-02T03:16:02.699Z,33.03
2019-02-02T03:18:50.524Z,31.00
2019-02-02T03:21:37.958Z,32.07
2019-02-02T03:24:25.385Z,30.67
2019-02-02T03:27:12.958Z,30.57
2019-02-02T03:30:00.747Z,31.17
2019-02-02T03:32:48.283Z,30.50
2019-02-02T03:35:36.206Z,31.60
2019-02-02T03:38:23.838Z,30.80
2019-02-02T03:41:11.822Z,30.10
2019-02-02T03:43:59.200Z,31.37
2019-02-02T03:46:46.718Z,30.37
2019-02-02T03:49:35.169Z,29.70
2019-02-02T03:52:22.498Z,30.33
2019-02-02T03:55:12.782Z,31.47
2019-02-02T03:58:00.204Z,31.00
2019-02-02T04:00:47.833Z,30.53
2019-02-02T04:03:35.368Z,31.80
2019-02-02T04:06:22.578Z,28.87
2019-02-02T04:09:10.007Z,30.17
2019-02-02T04:11:57.124Z,28.70
2019-02-02T04:14:44.549Z,28.93
2019-02-02T04:17:31.970Z,28.17
2019-02-02T04:20:22.192Z,28.47
2019-02-02T04:23:09.705Z,29.33
2019-02-02T04:25:58.849Z,30.00
2019-02-02T04:28:46.065Z,28.63
2019-02-02T04:31:33.899Z,30.30
2019-02-02T04:34:21.325Z,30.30
2019-02-02T04:37:08.748Z,30.10
2019-02-02T04:39:55.763Z,29.43
2019-02-02T04:42:43.448Z,29.67
2019-02-02T04:45:31.019Z,29.77
2019-02-02T04:48:18.545Z,30.43
2019-02-02T04:51:06.189Z,30.13
2019-02-02T04:53:53.599Z,29.77
2019-02-02T04:56:41.330Z,30.70
2019-02-02T04:59:29.590Z,30.40
2019-02-02T05:02:18.438Z,30.13
2019-02-02T05:05:09.227Z,30.77
2019-02-02T05:07:56.658Z,30.13
2019-02-02T05:10:44.289Z,30.13
2019-02-02T05:13:31.816Z,30.50
2019-02-02T05:16:19.552Z,31.70
2019-02-02T05:19:07.380Z,30.53
2019-02-02T05:21:54.823Z,31.73
2019-02-02T05:24:42.533Z,33.20
2019-02-02T05:27:30.365Z,32.47
2019-02-02T05:30:20.959Z,34.20
2019-02-02T05:33:08.495Z,34.10
2019-02-02T05:35:55.915Z,33.87
2019-02-02T05:38:43.263Z,34.57
2019-02-02T05:41:30.765Z,33.33
2019-02-02T05:44:18.497Z,34.77
2019-02-02T05:47:05.944Z,35.30
2019-02-02T05:49:53.548Z,34.93
2019-02-02T05:52:41.076Z,35.30
2019-02-02T05:55:28.292Z,33.50
2019-02-02T05:58:15.921Z,34.83
2019-02-02T06:01:03.044Z,35.03
2019-02-02T06:03:50.567Z,34.33
2019-02-02T06:06:37.992Z,33.47
2019-02-02T06:09:25.417Z,33.63
2019-02-02T06:12:13.042Z,33.63
2019-02-02T06:15:00.672Z,33.90
2019-02-02T06:17:48.198Z,33.47
2019-02-02T06:20:35.625Z,32.83
2019-02-02T06:23:22.839Z,32.70
2019-02-02T06:26:10.265Z,32.00
2019-02-02T06:28:57.798Z,32.70
2019-02-02T06:31:45.418Z,34.57
2019-02-02T06:34:32.844Z,33.73
2019-02-02T06:37:20.165Z,32.90
2019-02-02T06:40:10.357Z,33.37
2019-02-02T06:42:57.675Z,32.47
2019-02-02T06:45:45.098Z,31.67
2019-02-02T06:48:32.741Z,32.27
2019-02-02T06:51:20.460Z,34.77
2019-02-02T06:54:08.294Z,33.63
2019-02-02T06:56:55.308Z,33.83
2019-02-02T06:59:42.833Z,34.20
2019-02-02T07:02:30.154Z,35.43
2019-02-02T07:05:17.890Z,35.43
2019-02-02T07:08:05.416Z,35.17
2019-02-02T07:10:52.752Z,35.07
2019-02-02T07:13:40.375Z,34.80
2019-02-02T07:16:30.757Z,36.87
2019-02-02T07:19:18.294Z,36.67
2019-02-02T07:22:05.919Z,34.87
2019-02-02T07:24:53.161Z,34.70
2019-02-02T07:27:40.861Z,34.43
2019-02-02T07:30:29.453Z,34.03
2019-02-02T07:33:17.348Z,34.67
2019-02-02T07:36:04.876Z,33.70
2019-02-02T07:38:53.126Z,34.60
2019-02-02T07:41:41.211Z,35.17
2019-02-02T07:44:29.208Z,35.47
2019-02-02T07:47:16.780Z,34.13
2019-02-02T07:50:06.196Z,33.30
2019-02-02T07:52:53.931Z,34.80
2019-02-02T07:55:41.041Z,35.80
2019-02-02T07:58:28.671Z,39.63
2019-02-02T08:01:18.169Z,37.13
2019-02-02T08:04:05.973Z,38.70
2019-02-02T08:06:53.296Z,38.53
2019-02-02T08:09:40.721Z,38.67
2019-02-02T08:12:28.248Z,40.03
2019-02-02T08:15:18.333Z,37.50
2019-02-02T08:18:06.492Z,36.83
2019-02-02T08:20:53.798Z,38.10
2019-02-02T08:23:41.630Z,38.43
2019-02-02T08:26:31.925Z,38.50
2019-02-02T08:29:19.556Z,40.70
2019-02-02T08:32:07.723Z,39.63
2019-02-02T08:34:55.331Z,40.87
2019-02-02T08:37:42.646Z,39.73
2019-02-02T08:40:30.269Z,40.17
2019-02-02T08:43:17.897Z,39.90
2019-02-02T08:46:05.449Z,40.07
2019-02-02T08:48:52.747Z,40.67
2019-02-02T08:51:40.275Z,40.90
2019-02-02T08:54:27.905Z,40.03
2019-02-02T08:57:15.343Z,40.57
2019-02-02T09:00:02.957Z,40.63
2019-02-02T09:02:50.696Z,40.90
2019-02-02T09:05:38.425Z,38.33
2019-02-02T09:08:26.050Z,40.00
2019-02-02T09:11:13.366Z,38.27
2019-02-02T09:14:00.688Z,37.43
2019-02-02T09:16:48.419Z,38.03
2019-02-02T09:19:35.847Z,38.27
2019-02-02T09:22:23.370Z,38.37
2019-02-02T09:25:13.001Z,37.73
2019-02-02T09:28:00.702Z,37.47
2019-02-02T09:30:48.012Z,37.63
2019-02-02T09:33:35.234Z,38.40
2019-02-02T09:36:22.954Z,38.33
2019-02-02T09:39:10.594Z,36.77
2019-02-02T09:41:59.434Z,38.33
2019-02-02T09:44:46.962Z,37.27
2019-02-02T09:47:34.486Z,38.90
2019-02-02T09:50:23.677Z,39.40
2019-02-02T09:53:11.177Z,38.63
2019-02-02T09:55:59.118Z,38.20
2019-02-02T09:58:46.892Z,39.13
2019-02-02T10:01:34.269Z,38.60
2019-02-02T10:04:21.795Z,38.13
2019-02-02T10:07:09.219Z,37.93
2019-02-02T10:09:56.849Z,36.80
2019-02-02T10:12:44.272Z,35.63
2019-02-02T10:15:31.592Z,36.00
2019-02-02T10:18:19.122Z,35.27
2019-02-02T10:21:06.648Z,37.03
2019-02-02T10:23:54.379Z,37.67
2019-02-02T10:26:42.006Z,36.53
2019-02-02T10:29:29.845Z,33.20
2019-02-02T10:32:17.267Z,34.13
2019-02-02T10:35:05.699Z,33.93
2019-02-02T10:37:53.342Z,34.10
2019-02-02T10:40:40.765Z,35.27
2019-02-02T10:43:28.000Z,34.27
2019-02-02T10:46:15.307Z,34.40
2019-02-02T10:49:02.628Z,33.60
2019-02-02T10:51:50.363Z,36.90
2019-02-02T10:54:37.883Z,35.40
2019-02-02T10:57:25.321Z,34.30
2019-02-02T11:00:19.293Z,34.27
2019-02-02T11:03:06.918Z,33.50
2019-02-02T11:05:54.334Z,34.27
2019-02-02T11:08:41.762Z,34.50
2019-02-02T11:11:29.290Z,34.23
2019-02-02T11:14:16.980Z,32.17
2019-02-02T11:17:04.759Z,33.20
2019-02-02T11:19:52.327Z,32.67
2019-02-02T11:22:40.186Z,35.97
2019-02-02T11:25:28.401Z,33.43
2019-02-02T11:28:15.906Z,33.20
2019-02-02T11:31:03.307Z,33.13
2019-02-02T11:33:50.835Z,34.33
2019-02-02T11:36:38.667Z,34.43
2019-02-02T11:39:25.988Z,34.10
2019-02-02T11:42:13.512Z,33.97
2019-02-02T11:45:01.043Z,35.83
2019-02-02T11:47:48.768Z,36.97
2019-02-02T11:50:36.193Z,38.03
2019-02-02T11:53:23.722Z,37.63
2019-02-02T11:56:11.144Z,37.90
2019-02-02T11:58:58.569Z,37.30
2019-02-02T12:01:45.898Z,36.63
2019-02-02T12:04:33.418Z,37.57
2019-02-02T12:07:21.871Z,36.80
2019-02-02T12:10:12.566Z,34.90
2019-02-02T12:13:00.301Z,35.30
2019-02-02T12:15:47.926Z,34.27
2019-02-02T12:18:35.761Z,33.10
2019-02-02T12:21:23.491Z,32.17
2019-02-02T12:24:15.907Z,34.40
2019-02-02T12:26:59.569Z,34.20
2019-02-02T12:29:47.196Z,37.33
2019-02-02T12:32:36.651Z,34.17
2019-02-02T12:35:25.890Z,33.10
2019-02-02T12:38:13.565Z,34.90
2019-02-02T12:41:01.475Z,35.60
2019-02-02T12:43:49.025Z,36.17
2019-02-02T12:46:36.860Z,33.83
2019-02-02T12:49:23.975Z,34.43
2019-02-02T12:52:11.812Z,33.97
2019-02-02T12:54:59.336Z,32.93
2019-02-02T12:57:47.070Z,33.47
2019-02-02T13:00:34.399Z,32.77
2019-02-02T13:03:22.121Z,32.37
2019-02-02T13:06:09.549Z,36.47
2019-02-02T13:08:56.976Z,36.67
2019-02-02T13:11:44.806Z,36.03
2019-02-02T13:14:32.122Z,38.13
2019-02-02T13:17:19.548Z,36.03
2019-02-02T13:20:12.386Z,37.27
2019-02-02T13:23:00.027Z,35.97
2019-02-02T13:25:47.822Z,35.83
2019-02-02T13:28:35.390Z,36.90
2019-02-02T13:31:22.640Z,37.20
2019-02-02T13:34:10.338Z,34.93
2019-02-02T13:36:57.661Z,36.00
2019-02-02T13:39:44.980Z,35.20
2019-02-02T13:42:32.405Z,35.20
2019-02-02T13:45:21.395Z,35.43
2019-02-02T13:48:09.198Z,37.53
2019-02-02T13:50:56.518Z,39.70
2019-02-02T13:53:43.637Z,39.47
2019-02-02T13:56:31.369Z,39.87
2019-02-02T13:59:18.896Z,38.80
2019-02-02T14:02:06.421Z,37.87
2019-02-02T14:04:53.538Z,35.87
2019-02-02T14:07:41.577Z,47.10
2019-02-02T14:10:31.061Z,52.47
2019-02-02T14:13:18.677Z,53.47
2019-02-02T14:16:05.900Z,55.97
2019-02-02T14:18:53.116Z,47.53
2019-02-02T14:21:40.546Z,38.00
2019-02-02T14:24:27.861Z,35.03
2019-02-02T14:27:15.081Z,35.40
2019-02-02T14:30:02.301Z,33.27
2019-02-02T14:32:49.927Z,33.23
2019-02-02T14:35:37.353Z,32.27
2019-02-02T14:38:25.292Z,33.40
2019-02-02T14:41:13.122Z,31.83
2019-02-02T14:44:00.766Z,34.33
2019-02-02T14:46:48.176Z,33.13
2019-02-02T14:49:35.599Z,34.53
2019-02-02T14:52:22.921Z,33.97
2019-02-02T14:55:16.285Z,35.83
2019-02-02T14:58:05.042Z,37.17
2019-02-02T15:00:54.001Z,39.67
2019-02-02T15:03:41.466Z,46.17
2019-02-02T15:06:28.743Z,37.90
2019-02-02T15:09:15.762Z,38.77
2019-02-02T15:12:02.843Z,37.83
2019-02-02T15:14:50.196Z,34.77
2019-02-02T15:17:37.316Z,33.10
2019-02-02T15:20:30.527Z,31.57
2019-02-02T15:23:17.936Z,37.03
2019-02-02T15:26:05.834Z,32.97
2019-02-02T15:28:52.846Z,33.53
2019-02-02T15:31:40.276Z,32.40
2019-02-02T15:34:27.797Z,30.47
2019-02-02T15:37:15.530Z,34.73
2019-02-02T15:40:03.053Z,36.97
2019-02-02T15:42:50.687Z,40.57
2019-02-02T15:45:38.109Z,42.73
2019-02-02T15:48:25.739Z,37.70
2019-02-02T15:51:13.177Z,37.20
2019-02-02T15:54:00.483Z,41.17
2019-02-02T15:56:48.132Z,43.63
2019-02-02T15:59:38.904Z,41.47
2019-02-02T16:02:26.607Z,41.40
2019-02-02T16:05:16.732Z,38.90
2019-02-02T16:08:10.468Z,34.70
2019-02-02T16:10:57.624Z,36.40
2019-02-02T16:13:45.253Z,35.83
2019-02-02T16:16:32.984Z,36.47
2019-02-02T16:19:20.418Z,40.33
2019-02-02T16:22:08.344Z,38.57
2019-02-02T16:24:56.281Z,36.03
2019-02-02T16:27:44.011Z,35.37
2019-02-02T16:30:31.535Z,35.67
2019-02-02T16:33:18.857Z,35.87
2019-02-02T16:36:06.898Z,36.77
2019-02-02T16:38:54.320Z,39.63
2019-02-02T16:41:41.551Z,37.80
2019-02-02T16:44:29.376Z,35.83
2019-02-02T16:47:17.102Z,34.30
2019-02-02T16:50:06.189Z,35.27
2019-02-02T16:52:53.898Z,34.13
2019-02-02T16:55:41.536Z,35.10
2019-02-02T16:58:29.156Z,35.73
2019-02-02T17:01:16.805Z,40.43
2019-02-02T17:04:15.077Z,39.97
2019-02-02T17:06:53.679Z,35.43
2019-02-02T17:09:41.572Z,34.00
2019-02-02T17:12:29.143Z,34.70
2019-02-02T17:15:16.612Z,35.10
2019-02-02T17:18:04.499Z,34.00
2019-02-02T17:20:51.616Z,32.03
2019-02-02T17:23:39.455Z,33.43
2019-02-02T17:26:26.775Z,35.93
2019-02-02T17:29:14.503Z,35.07
2019-02-02T17:32:02.133Z,32.90
2019-02-02T17:34:49.465Z,31.50
2019-02-02T17:37:36.879Z,30.43
2019-02-02T17:40:26.666Z,29.63
2019-02-02T17:43:13.922Z,30.80
2019-02-02T17:46:03.057Z,35.17
2019-02-02T17:48:50.260Z,32.53
2019-02-02T17:51:37.693Z,32.97
2019-02-02T17:54:25.011Z,35.40
2019-02-02T17:57:12.434Z,35.73
2019-02-02T18:00:00.615Z,39.97
2019-02-02T18:02:48.513Z,38.83
2019-02-02T18:05:35.729Z,37.23
2019-02-02T18:08:23.502Z,44.23
2019-02-02T18:11:11.233Z,49.97
2019-02-02T18:13:59.640Z,42.93
2019-02-02T18:16:46.752Z,40.10
2019-02-02T18:19:34.383Z,50.10
2019-02-02T18:22:21.808Z,39.90
2019-02-02T18:25:11.690Z,38.10
2019-02-02T18:27:58.882Z,35.90
2019-02-02T18:30:51.045Z,40.43
2019-02-02T18:33:38.877Z,40.77
2019-02-02T18:36:29.589Z,38.43
2019-02-02T18:39:17.604Z,35.43
2019-02-02T18:42:05.244Z,37.87
2019-02-02T18:44:52.698Z,35.03
2019-02-02T18:47:40.399Z,39.97
2019-02-02T18:50:28.614Z,37.80
2019-02-02T18:53:16.272Z,34.33
2019-02-02T18:56:04.239Z,35.27
2019-02-02T18:58:51.833Z,34.33
2019-02-02T19:01:38.850Z,37.00
2019-02-02T19:04:26.275Z,40.43
2019-02-02T19:07:13.697Z,39.57
2019-02-02T19:10:01.018Z,41.43
2019-02-02T19:12:48.447Z,41.50
2019-02-02T19:15:35.972Z,42.57
2019-02-02T19:18:23.504Z,41.30
2019-02-02T19:21:11.330Z,45.10
2019-02-02T19:23:59.062Z,43.20
2019-02-02T19:26:46.084Z,42.47
2019-02-02T19:29:33.811Z,47.87
2019-02-02T19:32:20.927Z,45.90
2019-02-02T19:35:16.310Z,43.23
2019-02-02T19:37:59.688Z,40.50
2019-02-02T19:40:47.193Z,39.67
2019-02-02T19:43:34.614Z,38.80
2019-02-02T19:46:22.037Z,40.20
2019-02-02T19:49:09.465Z,40.23
2019-02-02T19:51:58.320Z,39.67
2019-02-02T19:54:45.536Z,41.60
2019-02-02T19:57:32.870Z,40.27
2019-02-02T20:00:28.499Z,42.47
2019-02-02T20:03:16.105Z,43.47
2019-02-02T20:06:03.531Z,46.00
2019-02-02T20:08:51.057Z,47.73
2019-02-02T20:11:38.589Z,45.30
2019-02-02T20:14:25.703Z,45.07
2019-02-02T20:17:14.797Z,43.47
2019-02-02T20:20:01.882Z,44.67
2019-02-02T20:22:49.802Z,43.13
2019-02-02T20:25:37.446Z,41.63
2019-02-02T20:28:25.278Z,39.80
2019-02-02T20:31:12.617Z,39.67
2019-02-02T20:34:00.050Z,38.43
2019-02-02T20:36:47.446Z,37.67
2019-02-02T20:39:35.278Z,37.63
2019-02-02T20:42:22.678Z,37.50
2019-02-02T20:45:13.096Z,36.83
2019-02-02T20:48:00.521Z,36.17
2019-02-02T20:50:48.456Z,38.37
2019-02-02T20:53:36.392Z,34.13
2019-02-02T20:56:24.224Z,37.67
2019-02-02T20:59:11.548Z,36.53
2019-02-02T21:01:59.077Z,34.90
2019-02-02T21:04:46.704Z,34.50
2019-02-02T21:07:34.332Z,35.80
2019-02-02T21:10:23.635Z,36.87
2019-02-02T21:13:10.820Z,37.50
2019-02-02T21:15:58.244Z,36.70
2019-02-02T21:18:45.472Z,36.73
2019-02-02T21:21:32.887Z,36.60
2019-02-02T21:24:20.515Z,39.03
2019-02-02T21:27:07.629Z,36.40
2019-02-02T21:29:55.055Z,40.10
2019-02-02T21:32:46.749Z,37.60
2019-02-02T21:35:34.621Z,38.13
2019-02-02T21:38:22.143Z,38.27
2019-02-02T21:41:09.473Z,39.30
2019-02-02T21:43:56.753Z,39.43
2019-02-02T21:46:44.322Z,39.20
2019-02-02T21:49:31.735Z,36.87
2019-02-02T21:52:19.463Z,38.43
2019-02-02T21:55:10.064Z,34.97
2019-02-02T21:57:57.692Z,34.83
2019-02-02T22:00:45.528Z,37.73
2019-02-02T22:03:32.646Z,59.00
2019-02-02T22:06:20.170Z,51.57
2019-02-02T22:09:08.635Z,37.10
2019-02-02T22:11:56.043Z,35.00
2019-02-02T22:14:43.685Z,34.27
2019-02-02T22:17:31.198Z,34.87
2019-02-02T22:20:19.029Z,35.00
2019-02-02T22:23:06.145Z,33.90
2019-02-02T22:25:53.366Z,33.23
2019-02-02T22:28:40.994Z,32.97
2019-02-02T22:31:28.628Z,31.37
2019-02-02T22:34:16.047Z,32.40
2019-02-02T22:37:03.598Z,30.80
2019-02-02T22:39:51.309Z,32.30
2019-02-02T22:42:38.936Z,31.90
2019-02-02T22:45:26.152Z,35.13
2019-02-02T22:48:13.475Z,33.33
2019-02-02T22:51:01.208Z,33.57
2019-02-02T22:53:48.425Z,33.47
2019-02-02T22:56:35.951Z,34.37
2019-02-02T22:59:23.276Z,33.33
2019-02-02T23:02:11.722Z,34.87
2019-02-02T23:05:02.741Z,33.67
2019-02-02T23:07:53.092Z,34.97
2019-02-02T23:10:46.490Z,33.30
2019-02-02T23:13:45.923Z,35.30
2019-02-02T23:16:33.213Z,34.57
2019-02-02T23:19:20.636Z,34.73
2019-02-02T23:22:08.160Z,33.53
2019-02-02T23:24:55.892Z,35.07
2019-02-02T23:27:43.317Z,35.80
2019-02-02T23:30:30.793Z,34.97
2019-02-02T23:33:18.285Z,36.00
2019-02-02T23:36:06.146Z,35.57
2019-02-02T23:38:53.532Z,34.70
2019-02-02T23:41:41.053Z,35.77
2019-02-02T23:44:28.884Z,35.83
2019-02-02T23:47:16.411Z,34.90
2019-02-02T23:50:05.069Z,34.40
2019-02-02T23:52:52.717Z,34.70
2019-02-02T23:55:40.537Z,34.43
2019-02-02T23:58:27.965Z,34.93
